sensor_id;sensor_type;location;lat;lon;timestamp;P1;durP1;ratioP1;P2;durP2;ratioP2
10078;SDS011;5078;42.544;22.966;2024-03-02T00:01:30;43.10;;;28.83;;
10078;SDS011;5078;42.544;22.966;2024-03-02T00:03:56;39.10;;;27.42;;
10078;SDS011;5078;42.544;22.966;2024-03-02T00:06:23;39.78;;;28.35;;
10078;SDS011;5078;42.544;22.966;2024-03-02T00:08:51;40.90;;;27.00;;
10078;SDS011;5078;42.544;22.966;2024-03-02T00:11:23;37.78;;;25.52;;
10078;SDS011;5078;42.544;22.966;2024-03-02T00:13:50;44.17;;;27.08;;
10078;SDS011;5078;42.544;22.966;2024-03-02T00:16:19;38.70;;;26.67;;
10078;SDS011;5078;42.544;22.966;2024-03-02T00:18:45;42.72;;;28.70;;
10078;SDS011;5078;42.544;22.966;2024-03-02T00:21:12;44.75;;;28.73;;
10078;SDS011;5078;42.544;22.966;2024-03-02T00:23:40;42.88;;;28.02;;
10078;SDS011;5078;42.544;22.966;2024-03-02T00:26:08;42.42;;;26.95;;
10078;SDS011;5078;42.544;22.966;2024-03-02T00:28:38;39.67;;;25.15;;
10078;SDS011;5078;42.544;22.966;2024-03-02T00:31:07;40.15;;;25.23;;
10078;SDS011;5078;42.544;22.966;2024-03-02T00:33:37;37.75;;;26.40;;
10078;SDS011;5078;42.544;22.966;2024-03-02T00:36:07;41.40;;;27.38;;
10078;SDS011;5078;42.544;22.966;2024-03-02T00:38:35;43.17;;;29.30;;
10078;SDS011;5078;42.544;22.966;2024-03-02T00:41:15;44.63;;;28.55;;
10078;SDS011;5078;42.544;22.966;2024-03-02T00:43:44;47.63;;;30.85;;
10078;SDS011;5078;42.544;22.966;2024-03-02T00:46:15;42.35;;;29.10;;
10078;SDS011;5078;42.544;22.966;2024-03-02T00:48:47;48.55;;;30.65;;
10078;SDS011;5078;42.544;22.966;2024-03-02T00:51:17;48.33;;;31.05;;
10078;SDS011;5078;42.544;22.966;2024-03-02T00:53:44;46.85;;;30.38;;
10078;SDS011;5078;42.544;22.966;2024-03-02T00:56:12;47.10;;;29.55;;
10078;SDS011;5078;42.544;22.966;2024-03-02T00:58:39;42.63;;;29.98;;
10078;SDS011;5078;42.544;22.966;2024-03-02T01:01:06;45.92;;;30.77;;
10078;SDS011;5078;42.544;22.966;2024-03-02T01:03:33;47.15;;;31.65;;
10078;SDS011;5078;42.544;22.966;2024-03-02T01:05:59;46.15;;;30.92;;
10078;SDS011;5078;42.544;22.966;2024-03-02T01:08:27;48.40;;;31.65;;
10078;SDS011;5078;42.544;22.966;2024-03-02T01:10:54;46.95;;;30.95;;
10078;SDS011;5078;42.544;22.966;2024-03-02T01:13:22;49.45;;;32.85;;
10078;SDS011;5078;42.544;22.966;2024-03-02T01:15:49;51.95;;;33.50;;
10078;SDS011;5078;42.544;22.966;2024-03-02T01:18:16;48.22;;;31.95;;
10078;SDS011;5078;42.544;22.966;2024-03-02T01:20:43;48.42;;;32.47;;
10078;SDS011;5078;42.544;22.966;2024-03-02T01:23:10;49.78;;;32.30;;
10078;SDS011;5078;42.544;22.966;2024-03-02T01:25:36;48.03;;;32.20;;
10078;SDS011;5078;42.544;22.966;2024-03-02T01:28:03;49.55;;;32.38;;
10078;SDS011;5078;42.544;22.966;2024-03-02T01:30:32;47.17;;;32.40;;
10078;SDS011;5078;42.544;22.966;2024-03-02T01:32:58;49.28;;;31.45;;
10078;SDS011;5078;42.544;22.966;2024-03-02T01:35:27;46.58;;;31.35;;
10078;SDS011;5078;42.544;22.966;2024-03-02T01:37:53;49.28;;;30.58;;
10078;SDS011;5078;42.544;22.966;2024-03-02T01:40:20;50.25;;;31.98;;
10078;SDS011;5078;42.544;22.966;2024-03-02T01:42:51;45.78;;;30.85;;
10078;SDS011;5078;42.544;22.966;2024-03-02T01:45:18;50.40;;;30.83;;
10078;SDS011;5078;42.544;22.966;2024-03-02T01:47:46;45.45;;;31.40;;
10078;SDS011;5078;42.544;22.966;2024-03-02T01:50:13;46.55;;;30.83;;
10078;SDS011;5078;42.544;22.966;2024-03-02T01:52:40;48.63;;;31.80;;
10078;SDS011;5078;42.544;22.966;2024-03-02T01:55:09;47.67;;;32.60;;
10078;SDS011;5078;42.544;22.966;2024-03-02T01:57:36;48.90;;;33.42;;
10078;SDS011;5078;42.544;22.966;2024-03-02T02:00:03;50.55;;;32.38;;
10078;SDS011;5078;42.544;22.966;2024-03-02T02:02:30;46.88;;;33.10;;
10078;SDS011;5078;42.544;22.966;2024-03-02T02:04:58;44.10;;;31.20;;
10078;SDS011;5078;42.544;22.966;2024-03-02T02:07:25;49.15;;;31.55;;
10078;SDS011;5078;42.544;22.966;2024-03-02T02:09:52;42.03;;;29.40;;
10078;SDS011;5078;42.544;22.966;2024-03-02T02:12:18;46.30;;;31.08;;
10078;SDS011;5078;42.544;22.966;2024-03-02T02:14:48;48.20;;;32.20;;
10078;SDS011;5078;42.544;22.966;2024-03-02T02:17:18;45.92;;;31.45;;
10078;SDS011;5078;42.544;22.966;2024-03-02T02:19:44;47.95;;;32.25;;
10078;SDS011;5078;42.544;22.966;2024-03-02T02:22:13;54.63;;;36.35;;
10078;SDS011;5078;42.544;22.966;2024-03-02T02:24:39;56.17;;;36.50;;
10078;SDS011;5078;42.544;22.966;2024-03-02T02:27:07;49.97;;;35.55;;
10078;SDS011;5078;42.544;22.966;2024-03-02T02:29:33;51.03;;;34.47;;
10078;SDS011;5078;42.544;22.966;2024-03-02T02:32:00;49.25;;;36.17;;
10078;SDS011;5078;42.544;22.966;2024-03-02T02:34:27;47.95;;;33.75;;
10078;SDS011;5078;42.544;22.966;2024-03-02T02:36:54;62.42;;;43.05;;
10078;SDS011;5078;42.544;22.966;2024-03-02T02:39:22;59.10;;;40.65;;
10078;SDS011;5078;42.544;22.966;2024-03-02T02:41:49;53.35;;;36.53;;
10078;SDS011;5078;42.544;22.966;2024-03-02T02:44:16;50.05;;;33.05;;
10078;SDS011;5078;42.544;22.966;2024-03-02T02:46:42;52.30;;;33.70;;
10078;SDS011;5078;42.544;22.966;2024-03-02T02:49:09;50.97;;;33.55;;
10078;SDS011;5078;42.544;22.966;2024-03-02T02:51:36;47.70;;;32.75;;
10078;SDS011;5078;42.544;22.966;2024-03-02T02:54:05;44.20;;;30.55;;
10078;SDS011;5078;42.544;22.966;2024-03-02T02:56:33;45.75;;;31.40;;
10078;SDS011;5078;42.544;22.966;2024-03-02T02:59:00;44.05;;;29.77;;
10078;SDS011;5078;42.544;22.966;2024-03-02T03:01:26;43.40;;;30.92;;
10078;SDS011;5078;42.544;22.966;2024-03-02T03:03:53;49.67;;;32.45;;
10078;SDS011;5078;42.544;22.966;2024-03-02T03:06:20;47.25;;;31.33;;
10078;SDS011;5078;42.544;22.966;2024-03-02T03:08:46;46.47;;;31.52;;
10078;SDS011;5078;42.544;22.966;2024-03-02T03:11:13;43.90;;;30.00;;
10078;SDS011;5078;42.544;22.966;2024-03-02T03:13:42;47.35;;;31.38;;
10078;SDS011;5078;42.544;22.966;2024-03-02T03:16:08;48.33;;;30.80;;
10078;SDS011;5078;42.544;22.966;2024-03-02T03:18:35;43.05;;;30.20;;
10078;SDS011;5078;42.544;22.966;2024-03-02T03:21:02;44.88;;;30.30;;
10078;SDS011;5078;42.544;22.966;2024-03-02T03:23:29;45.33;;;29.73;;
10078;SDS011;5078;42.544;22.966;2024-03-02T03:25:55;45.83;;;30.10;;
10078;SDS011;5078;42.544;22.966;2024-03-02T03:28:22;42.15;;;28.30;;
10078;SDS011;5078;42.544;22.966;2024-03-02T03:30:50;39.90;;;27.27;;
10078;SDS011;5078;42.544;22.966;2024-03-02T03:33:17;41.47;;;27.67;;
10078;SDS011;5078;42.544;22.966;2024-03-02T03:35:43;38.15;;;26.85;;
10078;SDS011;5078;42.544;22.966;2024-03-02T03:38:10;37.95;;;25.10;;
10078;SDS011;5078;42.544;22.966;2024-03-02T03:40:37;35.72;;;24.38;;
10078;SDS011;5078;42.544;22.966;2024-03-02T03:43:03;45.67;;;28.35;;
10078;SDS011;5078;42.544;22.966;2024-03-02T03:45:30;44.13;;;29.52;;
10078;SDS011;5078;42.544;22.966;2024-03-02T03:47:58;42.63;;;27.67;;
10078;SDS011;5078;42.544;22.966;2024-03-02T03:50:25;40.40;;;27.25;;
10078;SDS011;5078;42.544;22.966;2024-03-02T03:52:51;39.28;;;25.80;;
10078;SDS011;5078;42.544;22.966;2024-03-02T03:55:18;37.70;;;26.13;;
10078;SDS011;5078;42.544;22.966;2024-03-02T03:57:45;38.63;;;25.58;;
10078;SDS011;5078;42.544;22.966;2024-03-02T04:00:12;39.72;;;26.55;;
10078;SDS011;5078;42.544;22.966;2024-03-02T04:02:39;39.42;;;26.65;;
10078;SDS011;5078;42.544;22.966;2024-03-02T04:05:07;37.22;;;27.52;;
10078;SDS011;5078;42.544;22.966;2024-03-02T04:07:35;49.03;;;32.72;;
10078;SDS011;5078;42.544;22.966;2024-03-02T04:10:06;48.92;;;32.45;;
10078;SDS011;5078;42.544;22.966;2024-03-02T04:12:34;47.38;;;32.42;;
10078;SDS011;5078;42.544;22.966;2024-03-02T04:15:02;46.22;;;32.38;;
10078;SDS011;5078;42.544;22.966;2024-03-02T04:17:30;46.53;;;32.95;;
10078;SDS011;5078;42.544;22.966;2024-03-02T04:19:58;46.70;;;32.25;;
10078;SDS011;5078;42.544;22.966;2024-03-02T04:22:26;42.90;;;29.20;;
10078;SDS011;5078;42.544;22.966;2024-03-02T04:24:53;42.88;;;30.15;;
10078;SDS011;5078;42.544;22.966;2024-03-02T04:27:20;39.33;;;28.63;;
10078;SDS011;5078;42.544;22.966;2024-03-02T04:29:46;41.78;;;29.73;;
10078;SDS011;5078;42.544;22.966;2024-03-02T04:32:13;43.55;;;30.30;;
10078;SDS011;5078;42.544;22.966;2024-03-02T04:34:40;39.20;;;28.60;;
10078;SDS011;5078;42.544;22.966;2024-03-02T04:37:07;40.53;;;29.25;;
10078;SDS011;5078;42.544;22.966;2024-03-02T04:39:35;39.92;;;26.88;;
10078;SDS011;5078;42.544;22.966;2024-03-02T04:42:02;37.65;;;27.17;;
10078;SDS011;5078;42.544;22.966;2024-03-02T04:44:29;36.30;;;25.67;;
10078;SDS011;5078;42.544;22.966;2024-03-02T04:46:55;38.22;;;27.40;;
10078;SDS011;5078;42.544;22.966;2024-03-02T04:49:22;40.47;;;27.08;;
10078;SDS011;5078;42.544;22.966;2024-03-02T04:51:49;39.63;;;27.17;;
10078;SDS011;5078;42.544;22.966;2024-03-02T04:54:16;36.78;;;26.30;;
10078;SDS011;5078;42.544;22.966;2024-03-02T04:56:44;37.33;;;27.08;;
10078;SDS011;5078;42.544;22.966;2024-03-02T04:59:14;37.20;;;25.98;;
10078;SDS011;5078;42.544;22.966;2024-03-02T05:01:41;48.70;;;30.90;;
10078;SDS011;5078;42.544;22.966;2024-03-02T05:04:08;44.95;;;31.20;;
10078;SDS011;5078;42.544;22.966;2024-03-02T05:06:36;41.67;;;29.90;;
10078;SDS011;5078;42.544;22.966;2024-03-02T05:09:04;40.10;;;29.42;;
10078;SDS011;5078;42.544;22.966;2024-03-02T05:11:31;42.97;;;30.20;;
10078;SDS011;5078;42.544;22.966;2024-03-02T05:14:16;42.72;;;30.77;;
10078;SDS011;5078;42.544;22.966;2024-03-02T05:16:43;41.90;;;29.88;;
10078;SDS011;5078;42.544;22.966;2024-03-02T05:19:10;43.40;;;30.17;;
10078;SDS011;5078;42.544;22.966;2024-03-02T05:21:36;44.40;;;29.73;;
10078;SDS011;5078;42.544;22.966;2024-03-02T05:24:03;45.65;;;31.95;;
10078;SDS011;5078;42.544;22.966;2024-03-02T05:26:30;46.38;;;32.28;;
10078;SDS011;5078;42.544;22.966;2024-03-02T05:28:56;51.30;;;34.95;;
10078;SDS011;5078;42.544;22.966;2024-03-02T05:31:25;51.83;;;34.22;;
10078;SDS011;5078;42.544;22.966;2024-03-02T05:33:51;50.92;;;34.22;;
10078;SDS011;5078;42.544;22.966;2024-03-02T05:36:18;51.90;;;36.58;;
10078;SDS011;5078;42.544;22.966;2024-03-02T05:38:45;48.85;;;34.33;;
10078;SDS011;5078;42.544;22.966;2024-03-02T05:41:12;50.97;;;33.83;;
10078;SDS011;5078;42.544;22.966;2024-03-02T05:43:39;49.28;;;33.58;;
10078;SDS011;5078;42.544;22.966;2024-03-02T05:46:05;48.22;;;34.88;;
10078;SDS011;5078;42.544;22.966;2024-03-02T05:48:33;48.63;;;33.95;;
10078;SDS011;5078;42.544;22.966;2024-03-02T05:51:00;46.30;;;34.63;;
10078;SDS011;5078;42.544;22.966;2024-03-02T05:53:27;48.92;;;34.80;;
10078;SDS011;5078;42.544;22.966;2024-03-02T05:55:54;45.55;;;33.38;;
10078;SDS011;5078;42.544;22.966;2024-03-02T05:58:21;53.17;;;38.25;;
10078;SDS011;5078;42.544;22.966;2024-03-02T06:00:58;51.33;;;35.22;;
10078;SDS011;5078;42.544;22.966;2024-03-02T06:03:25;49.42;;;35.97;;
10078;SDS011;5078;42.544;22.966;2024-03-02T06:05:54;51.65;;;35.10;;
10078;SDS011;5078;42.544;22.966;2024-03-02T06:08:21;54.70;;;36.90;;
10078;SDS011;5078;42.544;22.966;2024-03-02T06:10:48;55.10;;;37.35;;
10078;SDS011;5078;42.544;22.966;2024-03-02T06:13:14;55.47;;;37.28;;
10078;SDS011;5078;42.544;22.966;2024-03-02T06:15:41;53.60;;;34.33;;
10078;SDS011;5078;42.544;22.966;2024-03-02T06:18:08;53.03;;;34.97;;
10078;SDS011;5078;42.544;22.966;2024-03-02T06:20:35;47.63;;;31.98;;
10078;SDS011;5078;42.544;22.966;2024-03-02T06:23:03;46.00;;;31.58;;
10078;SDS011;5078;42.544;22.966;2024-03-02T06:25:30;56.78;;;37.90;;
10078;SDS011;5078;42.544;22.966;2024-03-02T06:27:57;59.72;;;41.60;;
10078;SDS011;5078;42.544;22.966;2024-03-02T06:30:24;58.17;;;40.40;;
10078;SDS011;5078;42.544;22.966;2024-03-02T06:32:51;57.53;;;41.83;;
10078;SDS011;5078;42.544;22.966;2024-03-02T06:35:17;61.40;;;41.13;;
10078;SDS011;5078;42.544;22.966;2024-03-02T06:37:44;58.95;;;41.78;;
10078;SDS011;5078;42.544;22.966;2024-03-02T06:40:12;57.15;;;40.40;;
10078;SDS011;5078;42.544;22.966;2024-03-02T06:42:39;62.53;;;40.80;;
10078;SDS011;5078;42.544;22.966;2024-03-02T06:45:06;50.13;;;33.53;;
10078;SDS011;5078;42.544;22.966;2024-03-02T06:47:33;49.47;;;33.35;;
10078;SDS011;5078;42.544;22.966;2024-03-02T06:49:59;45.83;;;31.58;;
10078;SDS011;5078;42.544;22.966;2024-03-02T06:52:26;43.42;;;30.15;;
10078;SDS011;5078;42.544;22.966;2024-03-02T06:54:53;47.05;;;33.85;;
10078;SDS011;5078;42.544;22.966;2024-03-02T06:57:21;55.33;;;37.22;;
10078;SDS011;5078;42.544;22.966;2024-03-02T06:59:49;59.88;;;40.35;;
10078;SDS011;5078;42.544;22.966;2024-03-02T07:02:19;58.70;;;38.75;;
10078;SDS011;5078;42.544;22.966;2024-03-02T07:04:45;53.42;;;37.72;;
10078;SDS011;5078;42.544;22.966;2024-03-02T07:07:14;55.55;;;37.90;;
10078;SDS011;5078;42.544;22.966;2024-03-02T07:09:41;67.68;;;49.97;;
10078;SDS011;5078;42.544;22.966;2024-03-02T07:12:07;72.68;;;50.05;;
10078;SDS011;5078;42.544;22.966;2024-03-02T07:14:36;58.45;;;40.13;;
10078;SDS011;5078;42.544;22.966;2024-03-02T07:17:36;52.97;;;37.35;;
10078;SDS011;5078;42.544;22.966;2024-03-02T07:20:03;55.08;;;38.75;;
10078;SDS011;5078;42.544;22.966;2024-03-02T07:22:31;52.47;;;37.22;;
10078;SDS011;5078;42.544;22.966;2024-03-02T07:24:58;46.30;;;33.33;;
10078;SDS011;5078;42.544;22.966;2024-03-02T07:27:25;41.08;;;30.30;;
10078;SDS011;5078;42.544;22.966;2024-03-02T07:29:53;41.05;;;29.42;;
10078;SDS011;5078;42.544;22.966;2024-03-02T07:32:19;37.15;;;29.13;;
10078;SDS011;5078;42.544;22.966;2024-03-02T07:34:46;43.13;;;31.40;;
10078;SDS011;5078;42.544;22.966;2024-03-02T07:37:13;37.72;;;27.02;;
10078;SDS011;5078;42.544;22.966;2024-03-02T07:39:39;54.63;;;40.13;;
10078;SDS011;5078;42.544;22.966;2024-03-02T07:42:06;45.42;;;31.90;;
10078;SDS011;5078;42.544;22.966;2024-03-02T07:44:33;36.08;;;28.67;;
10078;SDS011;5078;42.544;22.966;2024-03-02T07:47:01;33.85;;;24.95;;
10078;SDS011;5078;42.544;22.966;2024-03-02T07:49:28;35.92;;;26.42;;
10078;SDS011;5078;42.544;22.966;2024-03-02T07:51:54;34.17;;;25.50;;
10078;SDS011;5078;42.544;22.966;2024-03-02T07:54:21;31.60;;;24.40;;
10078;SDS011;5078;42.544;22.966;2024-03-02T07:56:48;35.42;;;24.55;;
10078;SDS011;5078;42.544;22.966;2024-03-02T07:59:15;28.65;;;22.50;;
10078;SDS011;5078;42.544;22.966;2024-03-02T08:01:41;29.10;;;22.70;;
10078;SDS011;5078;42.544;22.966;2024-03-02T08:04:09;29.38;;;22.88;;
10078;SDS011;5078;42.544;22.966;2024-03-02T08:06:36;29.50;;;21.23;;
10078;SDS011;5078;42.544;22.966;2024-03-02T08:09:03;28.40;;;22.20;;
10078;SDS011;5078;42.544;22.966;2024-03-02T08:11:34;27.50;;;20.70;;
10078;SDS011;5078;42.544;22.966;2024-03-02T08:14:02;25.02;;;20.55;;
10078;SDS011;5078;42.544;22.966;2024-03-02T08:16:29;27.85;;;20.55;;
10078;SDS011;5078;42.544;22.966;2024-03-02T08:18:56;24.98;;;20.50;;
10078;SDS011;5078;42.544;22.966;2024-03-02T08:21:24;22.48;;;18.55;;
10078;SDS011;5078;42.544;22.966;2024-03-02T08:23:51;25.75;;;19.55;;
10078;SDS011;5078;42.544;22.966;2024-03-02T08:26:18;23.15;;;18.98;;
10078;SDS011;5078;42.544;22.966;2024-03-02T08:28:45;22.63;;;17.92;;
10078;SDS011;5078;42.544;22.966;2024-03-02T08:31:11;20.48;;;16.65;;
10078;SDS011;5078;42.544;22.966;2024-03-02T08:33:42;39.85;;;26.52;;
10078;SDS011;5078;42.544;22.966;2024-03-02T08:36:08;25.70;;;20.52;;
10078;SDS011;5078;42.544;22.966;2024-03-02T08:38:37;26.23;;;20.98;;
10078;SDS011;5078;42.544;22.966;2024-03-02T08:41:04;23.73;;;19.90;;
10078;SDS011;5078;42.544;22.966;2024-03-02T08:43:31;28.67;;;23.95;;
10078;SDS011;5078;42.544;22.966;2024-03-02T08:45:57;26.00;;;21.35;;
10078;SDS011;5078;42.544;22.966;2024-03-02T08:48:24;27.13;;;22.83;;
10078;SDS011;5078;42.544;22.966;2024-03-02T08:50:51;23.10;;;19.42;;
10078;SDS011;5078;42.544;22.966;2024-03-02T08:53:17;23.23;;;19.73;;
10078;SDS011;5078;42.544;22.966;2024-03-02T08:55:46;26.15;;;21.95;;
10078;SDS011;5078;42.544;22.966;2024-03-02T08:58:12;23.33;;;19.40;;
10078;SDS011;5078;42.544;22.966;2024-03-02T09:00:39;22.55;;;18.23;;
10078;SDS011;5078;42.544;22.966;2024-03-02T09:03:07;28.02;;;23.05;;
10078;SDS011;5078;42.544;22.966;2024-03-02T09:05:35;20.95;;;17.52;;
10078;SDS011;5078;42.544;22.966;2024-03-02T09:08:02;23.40;;;20.48;;
10078;SDS011;5078;42.544;22.966;2024-03-02T09:10:29;23.65;;;19.83;;
10078;SDS011;5078;42.544;22.966;2024-03-02T09:12:57;23.15;;;19.60;;
10078;SDS011;5078;42.544;22.966;2024-03-02T09:15:24;22.77;;;18.70;;
10078;SDS011;5078;42.544;22.966;2024-03-02T09:17:51;22.83;;;18.45;;
10078;SDS011;5078;42.544;22.966;2024-03-02T09:20:18;20.58;;;17.60;;
10078;SDS011;5078;42.544;22.966;2024-03-02T09:22:44;22.02;;;18.02;;
10078;SDS011;5078;42.544;22.966;2024-03-02T09:25:12;23.83;;;18.10;;
10078;SDS011;5078;42.544;22.966;2024-03-02T09:27:39;22.88;;;18.33;;
10078;SDS011;5078;42.544;22.966;2024-03-02T09:30:09;23.10;;;19.48;;
10078;SDS011;5078;42.544;22.966;2024-03-02T09:32:36;30.95;;;24.15;;
10078;SDS011;5078;42.544;22.966;2024-03-02T09:35:04;30.90;;;22.17;;
10078;SDS011;5078;42.544;22.966;2024-03-02T09:37:30;36.38;;;25.13;;
10078;SDS011;5078;42.544;22.966;2024-03-02T09:39:57;28.88;;;22.92;;
10078;SDS011;5078;42.544;22.966;2024-03-02T09:42:24;26.30;;;18.48;;
10078;SDS011;5078;42.544;22.966;2024-03-02T09:44:52;22.95;;;18.50;;
10078;SDS011;5078;42.544;22.966;2024-03-02T09:47:20;21.35;;;17.40;;
10078;SDS011;5078;42.544;22.966;2024-03-02T09:49:47;26.25;;;19.67;;
10078;SDS011;5078;42.544;22.966;2024-03-02T09:52:14;21.23;;;16.58;;
10078;SDS011;5078;42.544;22.966;2024-03-02T09:54:41;23.00;;;18.20;;
10078;SDS011;5078;42.544;22.966;2024-03-02T09:57:07;22.63;;;18.55;;
10078;SDS011;5078;42.544;22.966;2024-03-02T09:59:34;18.08;;;15.70;;
10078;SDS011;5078;42.544;22.966;2024-03-02T10:02:01;18.15;;;16.05;;
10078;SDS011;5078;42.544;22.966;2024-03-02T10:04:33;16.98;;;14.82;;
10078;SDS011;5078;42.544;22.966;2024-03-02T10:07:13;20.67;;;16.30;;
10078;SDS011;5078;42.544;22.966;2024-03-02T10:09:41;18.13;;;15.52;;
10078;SDS011;5078;42.544;22.966;2024-03-02T10:12:08;24.52;;;17.83;;
10078;SDS011;5078;42.544;22.966;2024-03-02T10:14:36;20.05;;;16.60;;
10078;SDS011;5078;42.544;22.966;2024-03-02T10:17:03;20.33;;;16.02;;
10078;SDS011;5078;42.544;22.966;2024-03-02T10:19:33;20.05;;;16.65;;
10078;SDS011;5078;42.544;22.966;2024-03-02T10:22:02;17.92;;;15.50;;
10078;SDS011;5078;42.544;22.966;2024-03-02T10:24:40;17.58;;;14.60;;
10078;SDS011;5078;42.544;22.966;2024-03-02T10:27:09;16.42;;;11.93;;
10078;SDS011;5078;42.544;22.966;2024-03-02T10:29:40;13.95;;;12.40;;
10078;SDS011;5078;42.544;22.966;2024-03-02T10:32:10;15.98;;;13.80;;
10078;SDS011;5078;42.544;22.966;2024-03-02T10:34:40;15.40;;;12.65;;
10078;SDS011;5078;42.544;22.966;2024-03-02T10:37:08;15.48;;;13.57;;
10078;SDS011;5078;42.544;22.966;2024-03-02T10:39:36;22.27;;;15.35;;
10078;SDS011;5078;42.544;22.966;2024-03-02T10:42:05;27.52;;;18.40;;
10078;SDS011;5078;42.544;22.966;2024-03-02T10:44:32;14.63;;;12.98;;
10078;SDS011;5078;42.544;22.966;2024-03-02T10:47:00;13.10;;;11.70;;
10078;SDS011;5078;42.544;22.966;2024-03-02T10:49:27;14.30;;;12.02;;
10078;SDS011;5078;42.544;22.966;2024-03-02T10:51:57;13.73;;;12.32;;
10078;SDS011;5078;42.544;22.966;2024-03-02T10:54:23;13.15;;;11.75;;
10078;SDS011;5078;42.544;22.966;2024-03-02T10:56:54;12.80;;;11.40;;
10078;SDS011;5078;42.544;22.966;2024-03-02T10:59:24;11.93;;;10.73;;
10078;SDS011;5078;42.544;22.966;2024-03-02T11:01:55;13.65;;;11.85;;
10078;SDS011;5078;42.544;22.966;2024-03-02T11:04:24;13.63;;;12.00;;
10078;SDS011;5078;42.544;22.966;2024-03-02T11:06:52;29.65;;;19.33;;
10078;SDS011;5078;42.544;22.966;2024-03-02T11:09:25;23.40;;;18.70;;
10078;SDS011;5078;42.544;22.966;2024-03-02T11:11:54;17.00;;;15.18;;
10078;SDS011;5078;42.544;22.966;2024-03-02T11:14:30;16.70;;;13.32;;
10078;SDS011;5078;42.544;22.966;2024-03-02T11:16:58;16.27;;;13.02;;
10078;SDS011;5078;42.544;22.966;2024-03-02T11:19:28;14.43;;;12.40;;
10078;SDS011;5078;42.544;22.966;2024-03-02T11:21:58;14.85;;;12.98;;
10078;SDS011;5078;42.544;22.966;2024-03-02T11:24:31;20.15;;;17.27;;
10078;SDS011;5078;42.544;22.966;2024-03-02T11:27:02;17.65;;;14.73;;
10078;SDS011;5078;42.544;22.966;2024-03-02T11:32:18;13.43;;;11.43;;
10078;SDS011;5078;42.544;22.966;2024-03-02T11:34:48;13.82;;;11.98;;
10078;SDS011;5078;42.544;22.966;2024-03-02T11:37:16;12.88;;;11.32;;
10078;SDS011;5078;42.544;22.966;2024-03-02T11:39:45;13.38;;;11.98;;
10078;SDS011;5078;42.544;22.966;2024-03-02T11:42:12;11.70;;;10.20;;
10078;SDS011;5078;42.544;22.966;2024-03-02T11:44:42;12.27;;;10.55;;
10078;SDS011;5078;42.544;22.966;2024-03-02T11:47:10;12.95;;;10.77;;
10078;SDS011;5078;42.544;22.966;2024-03-02T11:49:40;14.30;;;12.80;;
10078;SDS011;5078;42.544;22.966;2024-03-02T11:52:12;13.52;;;12.05;;
10078;SDS011;5078;42.544;22.966;2024-03-02T11:54:40;15.35;;;12.35;;
10078;SDS011;5078;42.544;22.966;2024-03-02T11:57:14;13.32;;;11.45;;
10078;SDS011;5078;42.544;22.966;2024-03-02T11:59:42;16.10;;;13.15;;
10078;SDS011;5078;42.544;22.966;2024-03-02T12:02:14;16.60;;;14.10;;
10078;SDS011;5078;42.544;22.966;2024-03-02T12:04:43;14.30;;;12.65;;
10078;SDS011;5078;42.544;22.966;2024-03-02T12:07:10;15.82;;;13.48;;
10078;SDS011;5078;42.544;22.966;2024-03-02T12:09:37;25.40;;;14.07;;
10078;SDS011;5078;42.544;22.966;2024-03-02T12:12:04;20.95;;;14.50;;
10078;SDS011;5078;42.544;22.966;2024-03-02T12:14:34;19.08;;;13.93;;
10078;SDS011;5078;42.544;22.966;2024-03-02T12:17:01;19.35;;;14.15;;
10078;SDS011;5078;42.544;22.966;2024-03-02T12:19:29;16.70;;;13.98;;
10078;SDS011;5078;42.544;22.966;2024-03-02T12:21:56;18.60;;;15.18;;
10078;SDS011;5078;42.544;22.966;2024-03-02T12:24:23;18.60;;;13.63;;
10078;SDS011;5078;42.544;22.966;2024-03-02T12:26:54;18.98;;;14.77;;
10078;SDS011;5078;42.544;22.966;2024-03-02T12:29:23;22.05;;;14.80;;
10078;SDS011;5078;42.544;22.966;2024-03-02T12:31:52;18.65;;;16.70;;
10078;SDS011;5078;42.544;22.966;2024-03-02T12:34:19;17.45;;;15.65;;
10078;SDS011;5078;42.544;22.966;2024-03-02T12:36:46;18.58;;;16.75;;
10078;SDS011;5078;42.544;22.966;2024-03-02T12:39:18;10.30;;;9.30;;
10078;SDS011;5078;42.544;22.966;2024-03-02T12:41:45;11.77;;;10.57;;
10078;SDS011;5078;42.544;22.966;2024-03-02T12:44:15;16.73;;;14.02;;
10078;SDS011;5078;42.544;22.966;2024-03-02T12:46:42;13.65;;;12.35;;
10078;SDS011;5078;42.544;22.966;2024-03-02T12:49:11;10.70;;;9.60;;
10078;SDS011;5078;42.544;22.966;2024-03-02T12:51:39;11.73;;;10.13;;
10078;SDS011;5078;42.544;22.966;2024-03-02T12:54:07;17.02;;;15.23;;
10078;SDS011;5078;42.544;22.966;2024-03-02T12:56:34;20.83;;;15.52;;
10078;SDS011;5078;42.544;22.966;2024-03-02T12:59:02;27.05;;;24.33;;
10078;SDS011;5078;42.544;22.966;2024-03-02T13:01:29;23.05;;;20.90;;
10078;SDS011;5078;42.544;22.966;2024-03-02T13:03:56;18.23;;;15.98;;
10078;SDS011;5078;42.544;22.966;2024-03-02T13:06:26;12.45;;;11.15;;
10078;SDS011;5078;42.544;22.966;2024-03-02T13:08:54;10.93;;;9.50;;
10078;SDS011;5078;42.544;22.966;2024-03-02T13:11:21;10.43;;;8.68;;
10078;SDS011;5078;42.544;22.966;2024-03-02T13:13:48;10.13;;;8.65;;
10078;SDS011;5078;42.544;22.966;2024-03-02T13:16:15;9.88;;;8.88;;
10078;SDS011;5078;42.544;22.966;2024-03-02T13:18:44;9.95;;;8.95;;
10078;SDS011;5078;42.544;22.966;2024-03-02T13:21:11;14.38;;;12.07;;
10078;SDS011;5078;42.544;22.966;2024-03-02T13:23:39;10.80;;;9.57;;
10078;SDS011;5078;42.544;22.966;2024-03-02T13:26:06;13.63;;;11.35;;
10078;SDS011;5078;42.544;22.966;2024-03-02T13:28:35;11.65;;;10.23;;
10078;SDS011;5078;42.544;22.966;2024-03-02T13:31:02;11.30;;;10.07;;
10078;SDS011;5078;42.544;22.966;2024-03-02T13:33:30;11.70;;;10.50;;
10078;SDS011;5078;42.544;22.966;2024-03-02T13:35:58;12.73;;;10.75;;
10078;SDS011;5078;42.544;22.966;2024-03-02T13:38:24;13.10;;;11.80;;
10078;SDS011;5078;42.544;22.966;2024-03-02T13:40:53;11.95;;;10.75;;
10078;SDS011;5078;42.544;22.966;2024-03-02T13:43:20;16.77;;;14.95;;
10078;SDS011;5078;42.544;22.966;2024-03-02T13:45:48;16.85;;;14.55;;
10078;SDS011;5078;42.544;22.966;2024-03-02T13:48:17;15.60;;;13.27;;
10078;SDS011;5078;42.544;22.966;2024-03-02T13:50:43;15.93;;;14.25;;
10078;SDS011;5078;42.544;22.966;2024-03-02T13:53:10;12.68;;;10.25;;
10078;SDS011;5078;42.544;22.966;2024-03-02T13:55:37;11.43;;;9.90;;
10078;SDS011;5078;42.544;22.966;2024-03-02T13:58:05;10.27;;;9.18;;
10078;SDS011;5078;42.544;22.966;2024-03-02T14:00:32;9.27;;;8.27;;
10078;SDS011;5078;42.544;22.966;2024-03-02T14:02:59;12.57;;;9.45;;
10078;SDS011;5078;42.544;22.966;2024-03-02T14:05:26;18.45;;;16.45;;
10078;SDS011;5078;42.544;22.966;2024-03-02T14:07:53;10.70;;;9.60;;
10078;SDS011;5078;42.544;22.966;2024-03-02T14:10:20;11.68;;;10.07;;
10078;SDS011;5078;42.544;22.966;2024-03-02T14:12:48;18.27;;;14.75;;
10078;SDS011;5078;42.544;22.966;2024-03-02T14:15:16;10.38;;;9.27;;
10078;SDS011;5078;42.544;22.966;2024-03-02T14:17:43;11.35;;;10.02;;
10078;SDS011;5078;42.544;22.966;2024-03-02T14:20:10;9.70;;;8.65;;
10078;SDS011;5078;42.544;22.966;2024-03-02T14:22:38;11.25;;;8.02;;
10078;SDS011;5078;42.544;22.966;2024-03-02T14:25:06;12.95;;;11.02;;
10078;SDS011;5078;42.544;22.966;2024-03-02T14:27:33;11.23;;;10.00;;
10078;SDS011;5078;42.544;22.966;2024-03-02T14:30:00;11.40;;;9.80;;